createdAt,value
2022-11-29T00:04:30.931Z,100954.03
2022-11-29T00:09:32.386Z,100967.59
2022-11-29T00:14:33.839Z,100969.88
2022-11-29T00:19:35.451Z,100966.91
2022-11-29T00:24:36.963Z,100975.28
2022-11-29T00:29:38.406Z,100966.66
2022-11-29T00:34:39.940Z,100975.25
2022-11-29T00:39:41.394Z,100968.75
2022-11-29T00:44:43.123Z,100967.91
2022-11-29T00:49:44.728Z,100968.91
2022-11-29T00:54:46.455Z,100978.78
2022-11-29T00:59:48.174Z,100969.31
2022-11-29T01:04:49.628Z,100966.22
2022-11-29T01:09:51.151Z,100976.78
2022-11-29T01:14:52.595Z,100971.47
2022-11-29T01:19:54.055Z,100969.03
2022-11-29T01:24:55.519Z,100988.22
2022-11-29T01:29:56.968Z,100984.97
2022-11-29T01:34:58.418Z,100991.41
2022-11-29T01:39:59.882Z,100987.50
2022-11-29T01:45:24.499Z,100985.88
2022-11-29T01:50:26.012Z,100993.38
2022-11-29T01:55:27.483Z,101000.88
2022-11-29T02:00:29.574Z,100994.78
2022-11-29T02:05:31.028Z,101006.97
2022-11-29T02:11:15.133Z,100998.13
2022-11-29T02:16:59.393Z,100997.56
2022-11-29T02:22:05.507Z,101012.34
2022-11-29T02:27:24.744Z,101011.63
2022-11-29T02:32:50.636Z,101007.63
2022-11-29T02:38:10.516Z,101019.91
2022-11-29T02:43:44.339Z,101020.31
2022-11-29T02:49:00.881Z,101018.22
2022-11-29T02:54:20.367Z,101030.41
2022-11-29T02:59:32.269Z,101028.31
2022-11-29T03:05:11.000Z,101028.88
2022-11-29T03:10:25.983Z,101037.41
2022-11-29T03:15:28.701Z,101041.06
2022-11-29T03:20:56.700Z,101050.19
2022-11-29T03:26:12.046Z,101055.19
2022-11-29T03:31:21.001Z,101061.66
2022-11-29T03:36:34.548Z,101066.16
2022-11-29T03:41:45.365Z,101064.66
2022-11-29T03:46:58.565Z,101067.72
2022-11-29T03:52:24.914Z,101070.47
2022-11-29T03:58:01.582Z,101070.69
2022-11-29T04:03:26.159Z,101085.63
2022-11-29T04:08:48.430Z,101092.31
2022-11-29T04:14:24.403Z,101097.38
2022-11-29T04:19:37.831Z,101091.69
2022-11-29T04:24:51.543Z,101089.00
2022-11-29T04:30:23.985Z,101094.44
2022-11-29T04:36:03.269Z,101094.13
2022-11-29T04:41:31.167Z,101109.19
2022-11-29T04:47:02.177Z,101116.25
2022-11-29T04:52:32.752Z,101123.72
2022-11-29T04:57:57.717Z,101116.88
2022-11-29T05:03:14.658Z,101129.09
2022-11-29T05:08:39.976Z,101127.75
2022-11-29T05:13:58.243Z,101132.03
2022-11-29T05:19:18.307Z,101138.47
2022-11-29T05:24:45.513Z,101139.59
2022-11-29T05:30:01.421Z,101150.06
2022-11-29T05:35:48.072Z,101156.31
2022-11-29T05:40:58.831Z,101172.34
2022-11-29T05:46:22.693Z,101181.13
2022-11-29T05:51:45.984Z,101186.16
2022-11-29T05:57:06.275Z,101195.69
2022-11-29T06:02:28.330Z,101201.47
2022-11-29T06:07:51.637Z,101204.34
2022-11-29T06:13:04.125Z,101209.94
2022-11-29T06:18:40.768Z,101211.25
2022-11-29T06:24:00.820Z,101203.06
2022-11-29T06:29:23.999Z,101214.00
2022-11-29T06:34:33.924Z,101219.44
2022-11-29T06:39:35.622Z,101225.25
2022-11-29T06:44:37.294Z,101231.22
2022-11-29T06:50:10.616Z,101237.66
2022-11-29T06:55:22.538Z,101242.72
2022-11-29T07:00:28.445Z,101246.69
2022-11-29T07:05:33.908Z,101249.44
2022-11-29T07:10:37.300Z,101254.59
2022-11-29T07:15:39.351Z,101254.25
2022-11-29T07:20:43.731Z,101260.47
2022-11-29T07:26:03.398Z,101262.41
2022-11-29T07:31:20.080Z,101266.59
2022-11-29T07:36:40.773Z,101273.75
2022-11-29T07:41:52.612Z,101277.56
2022-11-29T07:46:54.090Z,101281.16
2022-11-29T07:51:55.691Z,101282.03
2022-11-29T07:56:57.152Z,101278.84
2022-11-29T08:01:59.232Z,101289.22
2022-11-29T08:07:00.809Z,101293.47
2022-11-29T08:12:02.269Z,101291.97
2022-11-29T08:17:04.027Z,101306.91
2022-11-29T08:22:05.492Z,101320.50
2022-11-29T08:27:06.956Z,101320.00
2022-11-29T08:32:09.052Z,101314.88
2022-11-29T08:37:10.514Z,101323.09
2022-11-29T08:42:11.967Z,101334.91
2022-11-29T08:47:32.043Z,101338.13
2022-11-29T08:52:53.495Z,101352.19
2022-11-29T08:57:55.434Z,101349.44
2022-11-29T09:03:16.849Z,101359.97
2022-11-29T09:08:18.331Z,101358.44
2022-11-29T09:13:19.803Z,101377.03
2022-11-29T09:18:22.620Z,101381.69
2022-11-29T09:23:24.458Z,101388.16
2022-11-29T09:28:25.935Z,101398.41
2022-11-29T09:33:27.395Z,101404.38
2022-11-29T09:38:28.956Z,101409.13
2022-11-29T09:43:38.166Z,101401.13
2022-11-29T09:49:04.654Z,101414.84
2022-11-29T09:54:44.186Z,101416.09
2022-11-29T09:59:48.216Z,101406.34
2022-11-29T10:04:53.276Z,101406.31
2022-11-29T10:10:04.122Z,101410.56
2022-11-29T10:15:14.032Z,101406.13
2022-11-29T10:20:39.731Z,101412.66
2022-11-29T10:25:53.111Z,101404.13
2022-11-29T10:30:55.409Z,101409.41
2022-11-29T10:35:58.985Z,101420.69
2022-11-29T10:41:12.192Z,101419.41
2022-11-29T10:46:26.068Z,101426.72
2022-11-29T10:51:27.619Z,101431.00
2022-11-29T10:56:31.169Z,101435.03
2022-11-29T11:01:34.206Z,101435.81
2022-11-29T11:06:46.880Z,101428.09
2022-11-29T11:11:52.906Z,101414.75
2022-11-29T11:16:54.569Z,101422.06
2022-11-29T11:21:57.229Z,101428.06
2022-11-29T11:26:58.828Z,101434.41
2022-11-29T11:32:00.300Z,101437.09
2022-11-29T11:37:20.458Z,101440.94
2022-11-29T11:42:39.470Z,101451.28
2022-11-29T11:47:49.151Z,101455.56
2022-11-29T11:52:54.782Z,101452.06
2022-11-29T11:58:12.057Z,101455.19
2022-11-29T12:03:51.010Z,101463.28
2022-11-29T12:09:09.023Z,101465.13
2022-11-29T12:14:15.708Z,101466.78
2022-11-29T12:19:20.507Z,101475.28
2022-11-29T12:24:28.398Z,101485.41
2022-11-29T12:29:31.699Z,101487.56
2022-11-29T12:34:48.562Z,101499.59
2022-11-29T12:39:57.297Z,101491.63
2022-11-29T12:45:04.781Z,101503.31
2022-11-29T12:50:27.493Z,101503.06
2022-11-29T12:55:30.613Z,101505.81
2022-11-29T13:00:36.002Z,101505.06
2022-11-29T13:05:58.627Z,101506.63
2022-11-29T13:11:11.635Z,101501.00
2022-11-29T13:16:22.917Z,101510.25
2022-11-29T13:21:37.274Z,101517.03
2022-11-29T13:26:39.284Z,101523.84
2022-11-29T13:31:40.799Z,101522.91
2022-11-29T13:37:00.801Z,101534.22
2022-11-29T13:42:45.327Z,101537.63
2022-11-29T13:47:54.391Z,101529.53
2022-11-29T13:53:03.497Z,101525.84
2022-11-29T13:58:16.953Z,101524.91
2022-11-29T14:03:23.455Z,101520.06
2022-11-29T14:09:02.414Z,101522.56
2022-11-29T14:14:10.042Z,101521.13
2022-11-29T14:19:11.921Z,101529.66
2022-11-29T14:24:31.869Z,101530.78
2022-11-29T14:29:48.722Z,101533.81
2022-11-29T14:34:55.192Z,101555.31
2022-11-29T14:39:57.852Z,101552.06
2022-11-29T14:45:01.303Z,101551.72
2022-11-29T14:50:06.474Z,101553.00
2022-11-29T14:55:16.789Z,101557.03
2022-11-29T15:00:26.344Z,101562.97
2022-11-29T15:05:34.303Z,101561.56
2022-11-29T15:10:41.248Z,101571.69
2022-11-29T15:15:46.646Z,101577.91
2022-11-29T15:21:21.785Z,101580.78
2022-11-29T15:26:23.443Z,101582.31
2022-11-29T15:31:24.943Z,101594.31
2022-11-29T15:36:26.464Z,101606.91
2022-11-29T15:41:29.580Z,101605.50
2022-11-29T15:46:31.496Z,101605.50
2022-11-29T15:51:36.404Z,101614.19
2022-11-29T15:56:48.958Z,101627.03
2022-11-29T16:01:50.489Z,101612.84
2022-11-29T16:06:51.984Z,101620.66
2022-11-29T16:11:53.444Z,101622.28
2022-11-29T16:16:56.608Z,101632.84
2022-11-29T16:21:58.425Z,101630.25
2022-11-29T16:27:00.153Z,101644.16
2022-11-29T16:32:13.162Z,101648.31
2022-11-29T16:37:18.008Z,101639.91
2022-11-29T16:42:47.915Z,101643.06
2022-11-29T16:47:58.678Z,101651.00
2022-11-29T16:53:37.741Z,101649.72
2022-11-29T16:59:16.626Z,101653.19
2022-11-29T17:04:00.775Z,101660.00
2022-11-29T17:09:02.267Z,101661.59
2022-11-29T17:14:03.728Z,101659.88
2022-11-29T17:19:05.224Z,101663.81
2022-11-29T17:24:09.650Z,101656.56
2022-11-29T17:29:11.735Z,101664.13
2022-11-29T17:34:13.216Z,101667.69
2022-11-29T17:39:15.657Z,101675.44
2022-11-29T17:44:17.180Z,101677.78
2022-11-29T17:49:18.815Z,101687.66
2022-11-29T17:54:21.250Z,101687.47
2022-11-29T17:59:22.789Z,101693.00
2022-11-29T18:04:24.326Z,101698.59
2022-11-29T18:09:25.818Z,101698.16
2022-11-29T18:14:30.897Z,101704.03
2022-11-29T18:19:32.362Z,101711.28
2022-11-29T18:24:33.819Z,101719.59
2022-11-29T18:29:39.157Z,101730.75
2022-11-29T18:34:40.892Z,101721.72
2022-11-29T18:39:42.372Z,101730.41
2022-11-29T18:44:44.073Z,101731.97
2022-11-29T18:49:45.859Z,101729.53
2022-11-29T18:54:47.911Z,101734.34
2022-11-29T18:59:49.524Z,101743.66
2022-11-29T19:04:50.980Z,101744.22
2022-11-29T19:09:52.448Z,101756.53
2022-11-29T19:14:54.083Z,101745.25
2022-11-29T19:19:55.656Z,101759.81
2022-11-29T19:24:57.153Z,101754.19
2022-11-29T19:29:58.608Z,101760.78
2022-11-29T19:35:00.071Z,101765.78
2022-11-29T19:40:01.538Z,101757.22
2022-11-29T19:45:16.987Z,101760.59
2022-11-29T19:50:19.066Z,101763.00
2022-11-29T19:55:20.663Z,101776.63
2022-11-29T20:00:22.415Z,101774.50
2022-11-29T20:05:23.946Z,101770.75
2022-11-29T20:10:25.557Z,101780.25
2022-11-29T20:15:27.041Z,101779.41
2022-11-29T20:20:29.487Z,101793.72
2022-11-29T20:25:30.973Z,101788.03
2022-11-29T20:30:33.440Z,101801.41
2022-11-29T20:35:35.192Z,101800.97
2022-11-29T20:41:12.711Z,101792.47
2022-11-29T20:46:14.286Z,101795.84
2022-11-29T20:51:15.787Z,101800.16
2022-11-29T20:56:17.264Z,101799.31
2022-11-29T21:01:18.776Z,101791.78
2022-11-29T21:06:20.277Z,101806.06
2022-11-29T21:11:22.123Z,101793.16
2022-11-29T21:16:30.776Z,101799.88
2022-11-29T21:21:44.565Z,101807.72
2022-11-29T21:26:52.369Z,101797.44
2022-11-29T21:31:54.059Z,101807.63
2022-11-29T21:36:57.142Z,101800.75
2022-11-29T21:41:58.459Z,101808.47
2022-11-29T21:46:59.922Z,101816.41
2022-11-29T21:52:01.388Z,101828.44
2022-11-29T21:57:02.872Z,101826.78
2022-11-29T22:02:04.475Z,101827.69
2022-11-29T22:07:05.994Z,101829.56
2022-11-29T22:12:32.041Z,101847.63
2022-11-29T22:17:28.903Z,101836.25
2022-11-29T22:22:30.357Z,101840.59
2022-11-29T22:27:31.824Z,101837.16
2022-11-29T22:32:34.355Z,101839.69
2022-11-29T22:37:35.816Z,101840.34
2022-11-29T22:42:37.320Z,101838.53
2022-11-29T22:47:38.806Z,101832.34
2022-11-29T22:52:40.270Z,101848.88
2022-11-29T22:57:41.728Z,101848.09
2022-11-29T23:02:43.194Z,101850.28
2022-11-29T23:07:46.965Z,101863.97
2022-11-29T23:12:48.436Z,101874.31
2022-11-29T23:17:49.909Z,101872.50
2022-11-29T23:22:51.371Z,101875.88
2022-11-29T23:27:54.205Z,101874.47
2022-11-29T23:32:55.681Z,101878.72
2022-11-29T23:37:57.126Z,101872.19
2022-11-29T23:42:58.596Z,101877.69
2022-11-29T23:48:00.100Z,101875.94
2022-11-29T23:53:01.557Z,101869.97
2022-11-29T23:58:03.268Z,101870.25
